sensor_id;sensor_type;location;lat;lon;timestamp;temperature;humidity
52267;DHT22;38223;50.940;4.034;2023-05-07T00:01:57;18.40;99.90
52267;DHT22;38223;50.940;4.034;2023-05-07T00:04:27;18.40;99.90
52267;DHT22;38223;50.940;4.034;2023-05-07T00:07:01;18.30;99.90
52267;DHT22;38223;50.940;4.034;2023-05-07T00:09:33;18.30;99.90
52267;DHT22;38223;50.940;4.034;2023-05-07T00:12:02;18.20;99.90
52267;DHT22;38223;50.940;4.034;2023-05-07T00:14:36;18.30;99.90
52267;DHT22;38223;50.940;4.034;2023-05-07T00:17:07;18.30;99.90
52267;DHT22;38223;50.940;4.034;2023-05-07T00:22:29;18.20;99.90
52267;DHT22;38223;50.940;4.034;2023-05-07T00:25:03;18.30;99.90
52267;DHT22;38223;50.940;4.034;2023-05-07T00:27:32;18.30;99.90
52267;DHT22;38223;50.940;4.034;2023-05-07T00:30:01;18.30;99.90
52267;DHT22;38223;50.940;4.034;2023-05-07T00:32:34;18.30;99.90
52267;DHT22;38223;50.940;4.034;2023-05-07T00:35:08;18.10;99.90
52267;DHT22;38223;50.940;4.034;2023-05-07T00:37:41;18.00;99.90
52267;DHT22;38223;50.940;4.034;2023-05-07T00:40:31;17.90;99.90
52267;DHT22;38223;50.940;4.034;2023-05-07T00:43:00;18.00;99.90
52267;DHT22;38223;50.940;4.034;2023-05-07T00:45:29;17.90;99.90
52267;DHT22;38223;50.940;4.034;2023-05-07T00:50:52;18.20;99.90
52267;DHT22;38223;50.940;4.034;2023-05-07T00:53:29;18.40;99.90
52267;DHT22;38223;50.940;4.034;2023-05-07T00:56:01;18.50;99.90
52267;DHT22;38223;50.940;4.034;2023-05-07T00:58:32;18.60;99.90
52267;DHT22;38223;50.940;4.034;2023-05-07T01:01:04;18.50;99.90
52267;DHT22;38223;50.940;4.034;2023-05-07T01:03:34;18.50;99.90
52267;DHT22;38223;50.940;4.034;2023-05-07T01:06:08;18.50;99.90
52267;DHT22;38223;50.940;4.034;2023-05-07T01:08:37;18.50;99.90
52267;DHT22;38223;50.940;4.034;2023-05-07T01:11:12;18.50;99.90
52267;DHT22;38223;50.940;4.034;2023-05-07T01:13:46;18.30;99.90
52267;DHT22;38223;50.940;4.034;2023-05-07T01:16:20;18.10;99.90
52267;DHT22;38223;50.940;4.034;2023-05-07T01:18:51;18.20;99.90
52267;DHT22;38223;50.940;4.034;2023-05-07T01:21:25;18.30;99.90
52267;DHT22;38223;50.940;4.034;2023-05-07T01:23:58;18.00;99.90
52267;DHT22;38223;50.940;4.034;2023-05-07T01:26:36;17.80;99.90
52267;DHT22;38223;50.940;4.034;2023-05-07T01:29:06;17.90;99.90
52267;DHT22;38223;50.940;4.034;2023-05-07T01:31:39;18.00;99.90
52267;DHT22;38223;50.940;4.034;2023-05-07T01:34:12;18.10;99.90
52267;DHT22;38223;50.940;4.034;2023-05-07T01:36:47;18.10;99.90
52267;DHT22;38223;50.940;4.034;2023-05-07T01:39:19;18.20;99.90
52267;DHT22;38223;50.940;4.034;2023-05-07T01:41:52;18.30;99.90
52267;DHT22;38223;50.940;4.034;2023-05-07T01:44:23;18.20;99.90
52267;DHT22;38223;50.940;4.034;2023-05-07T01:46:58;18.20;99.90
52267;DHT22;38223;50.940;4.034;2023-05-07T01:49:29;18.00;99.90
52267;DHT22;38223;50.940;4.034;2023-05-07T01:52:03;17.90;99.90
52267;DHT22;38223;50.940;4.034;2023-05-07T01:54:36;17.90;99.90
52267;DHT22;38223;50.940;4.034;2023-05-07T01:57:09;17.80;99.90
52267;DHT22;38223;50.940;4.034;2023-05-07T01:59:43;17.90;99.90
52267;DHT22;38223;50.940;4.034;2023-05-07T02:02:17;17.80;99.90
52267;DHT22;38223;50.940;4.034;2023-05-07T02:04:49;17.70;99.90
52267;DHT22;38223;50.940;4.034;2023-05-07T02:07:22;17.60;99.90
52267;DHT22;38223;50.940;4.034;2023-05-07T02:09:52;17.50;99.90
52267;DHT22;38223;50.940;4.034;2023-05-07T02:12:25;17.20;99.90
52267;DHT22;38223;50.940;4.034;2023-05-07T02:15:02;17.00;99.90
52267;DHT22;38223;50.940;4.034;2023-05-07T02:17:31;17.00;99.90
52267;DHT22;38223;50.940;4.034;2023-05-07T02:20:02;17.10;99.90
52267;DHT22;38223;50.940;4.034;2023-05-07T02:22:38;17.20;99.90
52267;DHT22;38223;50.940;4.034;2023-05-07T02:25:07;17.50;99.90
52267;DHT22;38223;50.940;4.034;2023-05-07T02:27:39;17.80;99.90
52267;DHT22;38223;50.940;4.034;2023-05-07T02:30:08;17.90;99.90
52267;DHT22;38223;50.940;4.034;2023-05-07T02:32:38;18.00;99.90
52267;DHT22;38223;50.940;4.034;2023-05-07T02:35:13;17.80;99.90
52267;DHT22;38223;50.940;4.034;2023-05-07T02:37:49;17.60;99.90
52267;DHT22;38223;50.940;4.034;2023-05-07T02:40:20;17.70;99.90
52267;DHT22;38223;50.940;4.034;2023-05-07T02:42:53;18.10;99.90
52267;DHT22;38223;50.940;4.034;2023-05-07T02:45:22;18.00;99.90
52267;DHT22;38223;50.940;4.034;2023-05-07T02:47:53;18.00;99.90
52267;DHT22;38223;50.940;4.034;2023-05-07T02:50:25;18.10;99.90
52267;DHT22;38223;50.940;4.034;2023-05-07T02:53:00;18.10;99.90
52267;DHT22;38223;50.940;4.034;2023-05-07T02:55:32;18.00;99.90
52267;DHT22;38223;50.940;4.034;2023-05-07T02:58:05;18.00;99.90
52267;DHT22;38223;50.940;4.034;2023-05-07T03:00:36;17.90;99.90
52267;DHT22;38223;50.940;4.034;2023-05-07T03:03:09;17.80;99.90
52267;DHT22;38223;50.940;4.034;2023-05-07T03:05:40;17.70;99.90
52267;DHT22;38223;50.940;4.034;2023-05-07T03:08:11;17.60;99.90
52267;DHT22;38223;50.940;4.034;2023-05-07T03:10:40;17.60;99.90
52267;DHT22;38223;50.940;4.034;2023-05-07T03:13:14;17.60;99.90
52267;DHT22;38223;50.940;4.034;2023-05-07T03:15:43;17.70;99.90
52267;DHT22;38223;50.940;4.034;2023-05-07T03:18:18;17.70;99.90
52267;DHT22;38223;50.940;4.034;2023-05-07T03:20:51;17.80;99.90
52267;DHT22;38223;50.940;4.034;2023-05-07T03:23:24;17.70;99.90
52267;DHT22;38223;50.940;4.034;2023-05-07T03:25:54;17.70;99.90
52267;DHT22;38223;50.940;4.034;2023-05-07T03:28:24;17.60;99.90
52267;DHT22;38223;50.940;4.034;2023-05-07T03:30:59;17.60;99.90
52267;DHT22;38223;50.940;4.034;2023-05-07T03:33:29;17.50;99.90
52267;DHT22;38223;50.940;4.034;2023-05-07T03:36:01;17.60;99.90
52267;DHT22;38223;50.940;4.034;2023-05-07T03:38:32;17.50;99.90
52267;DHT22;38223;50.940;4.034;2023-05-07T03:41:04;17.60;99.90
52267;DHT22;38223;50.940;4.034;2023-05-07T03:43:42;17.60;99.90
52267;DHT22;38223;50.940;4.034;2023-05-07T03:46:11;17.60;99.90
52267;DHT22;38223;50.940;4.034;2023-05-07T03:48:42;17.60;99.90
52267;DHT22;38223;50.940;4.034;2023-05-07T03:51:14;17.60;99.90
52267;DHT22;38223;50.940;4.034;2023-05-07T03:53:46;17.70;99.90
52267;DHT22;38223;50.940;4.034;2023-05-07T03:56:21;17.70;99.90
52267;DHT22;38223;50.940;4.034;2023-05-07T03:58:50;17.70;99.90
52267;DHT22;38223;50.940;4.034;2023-05-07T04:01:26;17.60;99.90
52267;DHT22;38223;50.940;4.034;2023-05-07T04:04:13;17.60;99.90
52267;DHT22;38223;50.940;4.034;2023-05-07T04:06:40;17.60;99.90
52267;DHT22;38223;50.940;4.034;2023-05-07T04:12:01;17.70;99.90
52267;DHT22;38223;50.940;4.034;2023-05-07T04:14:33;17.70;99.90
52267;DHT22;38223;50.940;4.034;2023-05-07T04:17:08;17.80;99.90
52267;DHT22;38223;50.940;4.034;2023-05-07T04:19:41;18.20;99.90
52267;DHT22;38223;50.940;4.034;2023-05-07T04:22:11;18.40;99.90
52267;DHT22;38223;50.940;4.034;2023-05-07T04:24:47;18.40;99.90
52267;DHT22;38223;50.940;4.034;2023-05-07T04:27:16;18.30;99.90
52267;DHT22;38223;50.940;4.034;2023-05-07T04:29:48;18.30;99.90
52267;DHT22;38223;50.940;4.034;2023-05-07T04:32:19;18.20;99.90
52267;DHT22;38223;50.940;4.034;2023-05-07T04:34:53;18.00;99.90
52267;DHT22;38223;50.940;4.034;2023-05-07T04:37:27;17.90;99.90
52267;DHT22;38223;50.940;4.034;2023-05-07T04:40:04;17.90;99.90
52267;DHT22;38223;50.940;4.034;2023-05-07T04:42:35;17.80;99.90
52267;DHT22;38223;50.940;4.034;2023-05-07T04:45:07;17.90;99.90
52267;DHT22;38223;50.940;4.034;2023-05-07T04:47:36;17.90;99.90
52267;DHT22;38223;50.940;4.034;2023-05-07T04:50:12;17.80;99.90
52267;DHT22;38223;50.940;4.034;2023-05-07T04:52:42;17.70;99.90
52267;DHT22;38223;50.940;4.034;2023-05-07T04:55:12;17.70;99.90
52267;DHT22;38223;50.940;4.034;2023-05-07T04:57:46;17.70;99.90
52267;DHT22;38223;50.940;4.034;2023-05-07T05:00:14;17.80;99.90
52267;DHT22;38223;50.940;4.034;2023-05-07T05:02:47;17.80;99.90
52267;DHT22;38223;50.940;4.034;2023-05-07T05:05:26;17.80;99.90
52267;DHT22;38223;50.940;4.034;2023-05-07T05:07:56;17.70;99.90
52267;DHT22;38223;50.940;4.034;2023-05-07T05:10:24;17.80;99.90
52267;DHT22;38223;50.940;4.034;2023-05-07T05:12:59;17.90;99.90
52267;DHT22;38223;50.940;4.034;2023-05-07T05:15:29;18.20;99.90
52267;DHT22;38223;50.940;4.034;2023-05-07T05:18:01;18.60;99.90
52267;DHT22;38223;50.940;4.034;2023-05-07T05:20:31;18.70;99.90
52267;DHT22;38223;50.940;4.034;2023-05-07T05:23:03;18.40;99.90
52267;DHT22;38223;50.940;4.034;2023-05-07T05:25:34;18.40;99.90
52267;DHT22;38223;50.940;4.034;2023-05-07T05:28:04;18.20;99.90
52267;DHT22;38223;50.940;4.034;2023-05-07T05:30:33;18.10;99.90
52267;DHT22;38223;50.940;4.034;2023-05-07T05:33:06;17.90;99.90
52267;DHT22;38223;50.940;4.034;2023-05-07T05:35:38;17.70;99.90
52267;DHT22;38223;50.940;4.034;2023-05-07T05:38:11;17.50;99.90
52267;DHT22;38223;50.940;4.034;2023-05-07T05:40:44;17.40;99.90
52267;DHT22;38223;50.940;4.034;2023-05-07T05:43:15;17.10;99.90
52267;DHT22;38223;50.940;4.034;2023-05-07T05:45:50;17.20;99.90
52267;DHT22;38223;50.940;4.034;2023-05-07T05:48:23;17.40;99.90
52267;DHT22;38223;50.940;4.034;2023-05-07T05:50:55;17.50;99.90
52267;DHT22;38223;50.940;4.034;2023-05-07T05:53:25;17.60;99.90
52267;DHT22;38223;50.940;4.034;2023-05-07T05:55:58;17.70;99.90
52267;DHT22;38223;50.940;4.034;2023-05-07T05:58:32;17.60;99.90
52267;DHT22;38223;50.940;4.034;2023-05-07T06:01:05;17.70;99.90
52267;DHT22;38223;50.940;4.034;2023-05-07T06:03:33;17.70;99.90
52267;DHT22;38223;50.940;4.034;2023-05-07T06:06:02;17.70;99.90
52267;DHT22;38223;50.940;4.034;2023-05-07T06:08:33;17.70;99.90
52267;DHT22;38223;50.940;4.034;2023-05-07T06:11:08;17.50;99.90
52267;DHT22;38223;50.940;4.034;2023-05-07T06:13:37;17.40;99.90
52267;DHT22;38223;50.940;4.034;2023-05-07T06:16:11;17.30;99.90
52267;DHT22;38223;50.940;4.034;2023-05-07T06:18:39;17.30;99.90
52267;DHT22;38223;50.940;4.034;2023-05-07T06:21:11;17.30;99.90
52267;DHT22;38223;50.940;4.034;2023-05-07T06:23:41;17.30;99.90
52267;DHT22;38223;50.940;4.034;2023-05-07T06:26:11;17.40;99.90
52267;DHT22;38223;50.940;4.034;2023-05-07T06:28:40;17.30;99.90
52267;DHT22;38223;50.940;4.034;2023-05-07T06:31:19;17.20;99.90
52267;DHT22;38223;50.940;4.034;2023-05-07T06:33:51;17.10;99.90
52267;DHT22;38223;50.940;4.034;2023-05-07T06:36:28;17.10;99.90
52267;DHT22;38223;50.940;4.034;2023-05-07T06:38:57;17.10;99.90
52267;DHT22;38223;50.940;4.034;2023-05-07T06:41:31;17.00;99.90
52267;DHT22;38223;50.940;4.034;2023-05-07T06:44:02;16.80;99.90
52267;DHT22;38223;50.940;4.034;2023-05-07T06:46:34;16.90;99.90
52267;DHT22;38223;50.940;4.034;2023-05-07T06:49:08;17.00;99.90
52267;DHT22;38223;50.940;4.034;2023-05-07T06:51:39;17.00;99.90
52267;DHT22;38223;50.940;4.034;2023-05-07T06:54:09;16.90;99.90
52267;DHT22;38223;50.940;4.034;2023-05-07T06:56:44;17.00;99.90
52267;DHT22;38223;50.940;4.034;2023-05-07T06:59:21;17.00;99.90
52267;DHT22;38223;50.940;4.034;2023-05-07T07:01:50;16.90;99.90
52267;DHT22;38223;50.940;4.034;2023-05-07T07:04:26;16.90;99.90
52267;DHT22;38223;50.940;4.034;2023-05-07T07:06:55;16.80;99.90
52267;DHT22;38223;50.940;4.034;2023-05-07T07:09:31;16.70;99.90
52267;DHT22;38223;50.940;4.034;2023-05-07T07:12:01;16.60;99.90
52267;DHT22;38223;50.940;4.034;2023-05-07T07:14:31;16.50;99.90
52267;DHT22;38223;50.940;4.034;2023-05-07T07:17:05;16.60;99.90
52267;DHT22;38223;50.940;4.034;2023-05-07T07:19:34;16.50;99.90
52267;DHT22;38223;50.940;4.034;2023-05-07T07:22:03;16.60;99.90
52267;DHT22;38223;50.940;4.034;2023-05-07T07:24:35;16.70;99.90
52267;DHT22;38223;50.940;4.034;2023-05-07T07:27:06;16.90;99.90
52267;DHT22;38223;50.940;4.034;2023-05-07T07:29:40;16.90;99.90
52267;DHT22;38223;50.940;4.034;2023-05-07T07:32:11;17.00;99.90
52267;DHT22;38223;50.940;4.034;2023-05-07T07:34:45;17.00;99.90
52267;DHT22;38223;50.940;4.034;2023-05-07T07:37:20;16.90;99.90
52267;DHT22;38223;50.940;4.034;2023-05-07T07:39:50;16.90;99.90
52267;DHT22;38223;50.940;4.034;2023-05-07T07:42:24;16.80;99.90
52267;DHT22;38223;50.940;4.034;2023-05-07T07:44:53;16.90;99.90
52267;DHT22;38223;50.940;4.034;2023-05-07T07:47:24;16.80;99.90
52267;DHT22;38223;50.940;4.034;2023-05-07T07:49:57;16.80;99.90
52267;DHT22;38223;50.940;4.034;2023-05-07T07:52:28;16.90;99.90
52267;DHT22;38223;50.940;4.034;2023-05-07T07:55:00;16.90;99.90
52267;DHT22;38223;50.940;4.034;2023-05-07T07:57:31;17.00;99.90
52267;DHT22;38223;50.940;4.034;2023-05-07T08:00:08;17.20;99.90
52267;DHT22;38223;50.940;4.034;2023-05-07T08:02:42;17.20;99.90
52267;DHT22;38223;50.940;4.034;2023-05-07T08:05:11;17.20;99.90
52267;DHT22;38223;50.940;4.034;2023-05-07T08:07:45;17.20;99.90
52267;DHT22;38223;50.940;4.034;2023-05-07T08:10:22;17.10;99.90
52267;DHT22;38223;50.940;4.034;2023-05-07T08:12:53;17.10;99.90
52267;DHT22;38223;50.940;4.034;2023-05-07T08:15:26;17.20;99.90
52267;DHT22;38223;50.940;4.034;2023-05-07T08:17:54;17.30;99.90
52267;DHT22;38223;50.940;4.034;2023-05-07T08:20:25;17.40;99.90
52267;DHT22;38223;50.940;4.034;2023-05-07T08:22:56;17.40;99.90
52267;DHT22;38223;50.940;4.034;2023-05-07T08:25:32;17.40;99.90
52267;DHT22;38223;50.940;4.034;2023-05-07T08:28:00;17.40;99.90
52267;DHT22;38223;50.940;4.034;2023-05-07T08:30:38;17.50;99.90
52267;DHT22;38223;50.940;4.034;2023-05-07T08:33:10;17.40;99.90
52267;DHT22;38223;50.940;4.034;2023-05-07T08:35:41;17.00;99.90
52267;DHT22;38223;50.940;4.034;2023-05-07T08:38:14;16.80;99.90
52267;DHT22;38223;50.940;4.034;2023-05-07T08:40:48;16.80;99.90
52267;DHT22;38223;50.940;4.034;2023-05-07T08:43:17;16.80;99.90
52267;DHT22;38223;50.940;4.034;2023-05-07T08:45:53;16.80;99.90
52267;DHT22;38223;50.940;4.034;2023-05-07T08:48:26;16.90;99.90
52267;DHT22;38223;50.940;4.034;2023-05-07T08:50:59;17.00;99.90
52267;DHT22;38223;50.940;4.034;2023-05-07T08:53:28;17.00;99.90
52267;DHT22;38223;50.940;4.034;2023-05-07T08:56:18;17.00;99.90
52267;DHT22;38223;50.940;4.034;2023-05-07T08:58:48;17.20;99.90
52267;DHT22;38223;50.940;4.034;2023-05-07T09:01:17;17.20;99.90
52267;DHT22;38223;50.940;4.034;2023-05-07T09:03:50;17.20;99.90
52267;DHT22;38223;50.940;4.034;2023-05-07T09:06:23;17.20;99.90
52267;DHT22;38223;50.940;4.034;2023-05-07T09:08:57;17.30;99.90
52267;DHT22;38223;50.940;4.034;2023-05-07T09:11:28;17.30;99.90
52267;DHT22;38223;50.940;4.034;2023-05-07T09:13:59;17.30;99.90
52267;DHT22;38223;50.940;4.034;2023-05-07T09:16:37;17.30;99.90
52267;DHT22;38223;50.940;4.034;2023-05-07T09:19:07;17.40;99.90
52267;DHT22;38223;50.940;4.034;2023-05-07T09:21:37;17.80;99.90
52267;DHT22;38223;50.940;4.034;2023-05-07T09:24:14;17.90;99.90
52267;DHT22;38223;50.940;4.034;2023-05-07T09:26:44;17.80;99.90
52267;DHT22;38223;50.940;4.034;2023-05-07T09:29:17;17.90;99.90
52267;DHT22;38223;50.940;4.034;2023-05-07T09:31:49;17.80;99.90
52267;DHT22;38223;50.940;4.034;2023-05-07T09:34:24;17.70;99.90
52267;DHT22;38223;50.940;4.034;2023-05-07T09:37:05;17.70;99.90
52267;DHT22;38223;50.940;4.034;2023-05-07T09:39:47;17.60;99.90
52267;DHT22;38223;50.940;4.034;2023-05-07T09:42:22;17.40;99.90
52267;DHT22;38223;50.940;4.034;2023-05-07T09:44:50;17.40;99.90
52267;DHT22;38223;50.940;4.034;2023-05-07T09:47:28;17.50;99.90
52267;DHT22;38223;50.940;4.034;2023-05-07T09:50:05;17.50;99.90
52267;DHT22;38223;50.940;4.034;2023-05-07T09:52:36;17.60;99.90
52267;DHT22;38223;50.940;4.034;2023-05-07T09:55:10;17.60;99.90
52267;DHT22;38223;50.940;4.034;2023-05-07T09:57:48;17.60;99.90
52267;DHT22;38223;50.940;4.034;2023-05-07T10:00:21;17.50;99.90
52267;DHT22;38223;50.940;4.034;2023-05-07T10:02:52;17.40;99.90
52267;DHT22;38223;50.940;4.034;2023-05-07T10:05:26;17.50;99.90
52267;DHT22;38223;50.940;4.034;2023-05-07T10:07:59;17.80;99.90
52267;DHT22;38223;50.940;4.034;2023-05-07T10:10:33;17.60;99.90
52267;DHT22;38223;50.940;4.034;2023-05-07T10:13:03;17.60;99.90
52267;DHT22;38223;50.940;4.034;2023-05-07T10:15:36;17.70;99.90
52267;DHT22;38223;50.940;4.034;2023-05-07T10:18:08;17.70;99.90
52267;DHT22;38223;50.940;4.034;2023-05-07T10:20:40;17.70;99.90
52267;DHT22;38223;50.940;4.034;2023-05-07T10:23:17;17.40;99.90
52267;DHT22;38223;50.940;4.034;2023-05-07T10:25:47;17.60;99.90
52267;DHT22;38223;50.940;4.034;2023-05-07T10:28:22;17.90;99.90
52267;DHT22;38223;50.940;4.034;2023-05-07T10:31:18;18.00;99.90
52267;DHT22;38223;50.940;4.034;2023-05-07T10:33:45;17.90;99.90
52267;DHT22;38223;50.940;4.034;2023-05-07T10:36:15;17.70;99.90
52267;DHT22;38223;50.940;4.034;2023-05-07T10:38:49;17.60;99.90
52267;DHT22;38223;50.940;4.034;2023-05-07T10:41:23;17.90;99.90
52267;DHT22;38223;50.940;4.034;2023-05-07T10:43:56;18.10;99.90
52267;DHT22;38223;50.940;4.034;2023-05-07T10:46:27;18.10;99.90
52267;DHT22;38223;50.940;4.034;2023-05-07T10:51:41;18.20;99.90
52267;DHT22;38223;50.940;4.034;2023-05-07T10:56:49;18.20;99.90
52267;DHT22;38223;50.940;4.034;2023-05-07T10:59:33;18.20;99.90
52267;DHT22;38223;50.940;4.034;2023-05-07T11:02:05;17.90;99.90
52267;DHT22;38223;50.940;4.034;2023-05-07T11:04:36;17.70;99.90
52267;DHT22;38223;50.940;4.034;2023-05-07T11:10:03;18.10;99.90
52267;DHT22;38223;50.940;4.034;2023-05-07T11:15:33;18.40;99.90
52267;DHT22;38223;50.940;4.034;2023-05-07T11:17:56;18.00;99.90
52267;DHT22;38223;50.940;4.034;2023-05-07T11:26:12;18.30;99.90
52267;DHT22;38223;50.940;4.034;2023-05-07T11:28:46;18.50;99.90
52267;DHT22;38223;50.940;4.034;2023-05-07T11:31:15;18.70;99.90
52267;DHT22;38223;50.940;4.034;2023-05-07T11:33:52;18.50;99.90
52267;DHT22;38223;50.940;4.034;2023-05-07T11:36:24;18.60;99.90
52267;DHT22;38223;50.940;4.034;2023-05-07T11:38:56;18.70;99.90
52267;DHT22;38223;50.940;4.034;2023-05-07T11:41:34;18.70;99.90
52267;DHT22;38223;50.940;4.034;2023-05-07T11:44:06;18.90;99.90
52267;DHT22;38223;50.940;4.034;2023-05-07T11:46:44;19.20;99.90
52267;DHT22;38223;50.940;4.034;2023-05-07T11:49:13;19.10;99.90
52267;DHT22;38223;50.940;4.034;2023-05-07T11:51:46;19.20;99.90
52267;DHT22;38223;50.940;4.034;2023-05-07T11:54:18;19.20;99.90
52267;DHT22;38223;50.940;4.034;2023-05-07T11:56:48;19.00;99.90
52267;DHT22;38223;50.940;4.034;2023-05-07T11:59:19;19.00;99.90
52267;DHT22;38223;50.940;4.034;2023-05-07T12:01:55;18.70;99.90
52267;DHT22;38223;50.940;4.034;2023-05-07T12:04:28;18.40;99.90
52267;DHT22;38223;50.940;4.034;2023-05-07T12:07:01;18.20;99.90
52267;DHT22;38223;50.940;4.034;2023-05-07T12:09:33;18.20;99.90
52267;DHT22;38223;50.940;4.034;2023-05-07T12:12:06;18.40;99.90
52267;DHT22;38223;50.940;4.034;2023-05-07T12:14:42;18.80;99.90
52267;DHT22;38223;50.940;4.034;2023-05-07T12:17:18;19.00;99.90
52267;DHT22;38223;50.940;4.034;2023-05-07T12:19:54;19.10;99.90
52267;DHT22;38223;50.940;4.034;2023-05-07T12:22:31;19.40;99.90
52267;DHT22;38223;50.940;4.034;2023-05-07T12:25:00;19.50;99.90
52267;DHT22;38223;50.940;4.034;2023-05-07T12:27:37;19.50;99.90
52267;DHT22;38223;50.940;4.034;2023-05-07T12:30:09;19.40;99.90
52267;DHT22;38223;50.940;4.034;2023-05-07T12:32:41;19.40;99.90
52267;DHT22;38223;50.940;4.034;2023-05-07T12:35:13;19.40;99.90
52267;DHT22;38223;50.940;4.034;2023-05-07T12:37:56;19.20;99.90
52267;DHT22;38223;50.940;4.034;2023-05-07T12:40:42;19.20;99.90
52267;DHT22;38223;50.940;4.034;2023-05-07T12:43:20;19.10;99.90
52267;DHT22;38223;50.940;4.034;2023-05-07T12:45:57;18.90;99.90
52267;DHT22;38223;50.940;4.034;2023-05-07T12:48:29;18.80;99.90
52267;DHT22;38223;50.940;4.034;2023-05-07T12:51:07;18.60;99.90
52267;DHT22;38223;50.940;4.034;2023-05-07T12:53:43;18.60;99.90
52267;DHT22;38223;50.940;4.034;2023-05-07T12:56:22;18.80;99.90
52267;DHT22;38223;50.940;4.034;2023-05-07T12:58:51;18.80;99.90
52267;DHT22;38223;50.940;4.034;2023-05-07T13:01:29;18.80;99.90
52267;DHT22;38223;50.940;4.034;2023-05-07T13:04:02;18.90;99.90
52267;DHT22;38223;50.940;4.034;2023-05-07T13:06:39;18.90;99.90
52267;DHT22;38223;50.940;4.034;2023-05-07T13:09:13;18.90;99.90
52267;DHT22;38223;50.940;4.034;2023-05-07T13:11:52;18.90;99.90
52267;DHT22;38223;50.940;4.034;2023-05-07T13:14:22;18.80;99.90
52267;DHT22;38223;50.940;4.034;2023-05-07T13:16:58;19.00;99.90
52267;DHT22;38223;50.940;4.034;2023-05-07T13:19:36;19.20;99.90
52267;DHT22;38223;50.940;4.034;2023-05-07T13:22:10;19.20;99.90
52267;DHT22;38223;50.940;4.034;2023-05-07T13:24:40;19.40;99.90
52267;DHT22;38223;50.940;4.034;2023-05-07T13:27:15;19.60;99.90
52267;DHT22;38223;50.940;4.034;2023-05-07T13:29:45;19.60;99.90
52267;DHT22;38223;50.940;4.034;2023-05-07T13:32:19;19.80;99.90
52267;DHT22;38223;50.940;4.034;2023-05-07T13:34:54;19.90;99.90
52267;DHT22;38223;50.940;4.034;2023-05-07T13:37:23;20.20;99.90
52267;DHT22;38223;50.940;4.034;2023-05-07T13:39:58;20.30;99.90
52267;DHT22;38223;50.940;4.034;2023-05-07T13:42:32;20.60;99.90
52267;DHT22;38223;50.940;4.034;2023-05-07T13:45:04;20.60;99.90
52267;DHT22;38223;50.940;4.034;2023-05-07T13:47:37;20.60;99.90
52267;DHT22;38223;50.940;4.034;2023-05-07T13:50:11;20.40;99.90
52267;DHT22;38223;50.940;4.034;2023-05-07T13:52:46;20.10;99.90
52267;DHT22;38223;50.940;4.034;2023-05-07T13:55:20;20.20;99.90
52267;DHT22;38223;50.940;4.034;2023-05-07T13:57:57;20.50;99.90
52267;DHT22;38223;50.940;4.034;2023-05-07T14:00:33;20.50;99.90
52267;DHT22;38223;50.940;4.034;2023-05-07T14:03:05;20.50;99.90
52267;DHT22;38223;50.940;4.034;2023-05-07T14:05:41;20.60;99.90
52267;DHT22;38223;50.940;4.034;2023-05-07T14:08:15;20.70;99.90
52267;DHT22;38223;50.940;4.034;2023-05-07T14:10:45;20.80;99.90
52267;DHT22;38223;50.940;4.034;2023-05-07T14:13:24;20.80;99.90
52267;DHT22;38223;50.940;4.034;2023-05-07T14:15:54;20.60;99.90
52267;DHT22;38223;50.940;4.034;2023-05-07T14:18:32;20.70;99.90
52267;DHT22;38223;50.940;4.034;2023-05-07T14:21:06;20.60;99.90
52267;DHT22;38223;50.940;4.034;2023-05-07T14:23:49;20.50;99.90
52267;DHT22;38223;50.940;4.034;2023-05-07T14:26:30;20.50;99.90
52267;DHT22;38223;50.940;4.034;2023-05-07T14:29:04;20.60;99.90
52267;DHT22;38223;50.940;4.034;2023-05-07T14:31:43;21.00;99.90
52267;DHT22;38223;50.940;4.034;2023-05-07T14:34:19;21.20;99.90
52267;DHT22;38223;50.940;4.034;2023-05-07T14:36:53;21.20;99.90
52267;DHT22;38223;50.940;4.034;2023-05-07T14:39:29;20.80;99.90
52267;DHT22;38223;50.940;4.034;2023-05-07T14:42:08;20.80;99.90
52267;DHT22;38223;50.940;4.034;2023-05-07T14:44:40;20.90;99.90
52267;DHT22;38223;50.940;4.034;2023-05-07T14:47:19;21.00;99.90
52267;DHT22;38223;50.940;4.034;2023-05-07T14:50:06;21.30;99.90
52267;DHT22;38223;50.940;4.034;2023-05-07T14:52:40;21.30;99.90
52267;DHT22;38223;50.940;4.034;2023-05-07T14:55:19;21.40;99.90
52267;DHT22;38223;50.940;4.034;2023-05-07T14:57:56;21.40;99.90
52267;DHT22;38223;50.940;4.034;2023-05-07T15:00:30;21.30;99.90
52267;DHT22;38223;50.940;4.034;2023-05-07T15:03:09;21.10;99.90
52267;DHT22;38223;50.940;4.034;2023-05-07T15:05:38;20.90;99.90
52267;DHT22;38223;50.940;4.034;2023-05-07T15:08:08;20.80;99.90
52267;DHT22;38223;50.940;4.034;2023-05-07T15:10:46;21.00;99.90
52267;DHT22;38223;50.940;4.034;2023-05-07T15:13:15;21.30;99.90
52267;DHT22;38223;50.940;4.034;2023-05-07T15:15:46;21.10;99.90
52267;DHT22;38223;50.940;4.034;2023-05-07T15:18:23;21.10;99.90
52267;DHT22;38223;50.940;4.034;2023-05-07T15:21:10;21.30;99.90
52267;DHT22;38223;50.940;4.034;2023-05-07T15:23:47;21.40;99.90
52267;DHT22;38223;50.940;4.034;2023-05-07T15:26:23;21.20;99.90
52267;DHT22;38223;50.940;4.034;2023-05-07T15:29:01;21.10;99.90
52267;DHT22;38223;50.940;4.034;2023-05-07T15:31:37;21.40;99.90
52267;DHT22;38223;50.940;4.034;2023-05-07T15:34:19;21.40;99.90
52267;DHT22;38223;50.940;4.034;2023-05-07T15:36:52;21.60;99.90
52267;DHT22;38223;50.940;4.034;2023-05-07T15:39:31;21.30;99.90
52267;DHT22;38223;50.940;4.034;2023-05-07T15:42:23;21.40;99.90
52267;DHT22;38223;50.940;4.034;2023-05-07T15:44:55;21.20;99.90
52267;DHT22;38223;50.940;4.034;2023-05-07T15:47:34;21.30;99.90
52267;DHT22;38223;50.940;4.034;2023-05-07T15:50:11;21.10;99.90
52267;DHT22;38223;50.940;4.034;2023-05-07T15:52:51;21.20;99.90
52267;DHT22;38223;50.940;4.034;2023-05-07T15:55:26;21.30;99.90
52267;DHT22;38223;50.940;4.034;2023-05-07T15:57:59;21.20;99.90
52267;DHT22;38223;50.940;4.034;2023-05-07T16:00:42;21.20;99.90
52267;DHT22;38223;50.940;4.034;2023-05-07T16:03:29;21.20;99.90
52267;DHT22;38223;50.940;4.034;2023-05-07T16:06:18;21.10;99.90
52267;DHT22;38223;50.940;4.034;2023-05-07T16:08:56;21.10;99.90
52267;DHT22;38223;50.940;4.034;2023-05-07T16:11:33;21.00;99.90
52267;DHT22;38223;50.940;4.034;2023-05-07T16:14:04;20.90;99.90
52267;DHT22;38223;50.940;4.034;2023-05-07T16:16:34;20.70;99.90
52267;DHT22;38223;50.940;4.034;2023-05-07T16:19:05;20.60;99.90
52267;DHT22;38223;50.940;4.034;2023-05-07T16:21:41;20.90;99.90
52267;DHT22;38223;50.940;4.034;2023-05-07T16:24:14;21.20;99.90
52267;DHT22;38223;50.940;4.034;2023-05-07T16:26:51;21.10;99.90
52267;DHT22;38223;50.940;4.034;2023-05-07T16:29:28;21.10;99.90
52267;DHT22;38223;50.940;4.034;2023-05-07T16:32:10;20.90;99.90
52267;DHT22;38223;50.940;4.034;2023-05-07T16:34:48;20.90;99.90